This is the latest recevied weather packets stored in our database for station/object OE3TEC-15. If no packets are shown the sender has not sent any weather packets the latest 10 day(s).
| Time | Temp. | Humidity | Pressure | Rain* | Wind** | Luminosity | Snow |
|---|---|---|---|---|---|---|---|
| 1777949151 | 7.22° C | 83% | 1010.3 hPa | 0 mm | - | 0 W/m² | - |
| 1777948543 | 7.78° C | 83% | 1010.3 hPa | 0 mm | - | 0 W/m² | - |
| 1777947936 | 7.78° C | 82% | 1010.6 hPa | 0 mm | - | 0 W/m² | - |
| 1777947330 | 7.78° C | 81% | 1010.7 hPa | 0 mm | - | 0 W/m² | - |
| 1777946723 | 8.33° C | 81% | 1010.7 hPa | 0 mm | - | 0 W/m² | - |
| 1777946115 | 8.33° C | 81% | 1010.8 hPa | 0 mm | - | 0 W/m² | - |
| 1777945508 | 8.33° C | 79% | 1010.8 hPa | 0 mm | - | 0 W/m² | - |
| 1777944901 | 8.89° C | 78% | 1010.7 hPa | 0 mm | - | 0 W/m² | - |
| 1777944293 | 9.44° C | 76% | 1010.8 hPa | 0 mm | - | 0 W/m² | - |
| 1777943686 | 10° C | 74% | 1010.8 hPa | 0 mm | - | 0 W/m² | - |
| 1777943079 | 10.56° C | 72% | 1010.9 hPa | 0 mm | - | 0 W/m² | - |
| 1777942471 | 11.11° C | 69% | 1011 hPa | 0 mm | - | 0 W/m² | - |
| 1777941864 | 12.22° C | 66% | 1010.8 hPa | 0 mm | - | 0 W/m² | - |
| 1777941258 | 12.78° C | 63% | 1010.9 hPa | 0 mm | - | 0 W/m² | - |
| 1777940658 | 13.33° C | 61% | 1010.8 hPa | 0 mm | - | 0 W/m² | - |
| 1777940053 | 14.44° C | 58% | 1010.8 hPa | 0 mm | - | 0 W/m² | - |
| 1777939445 | 14.44° C | 57% | 1010.8 hPa | 0 mm | - | 0 W/m² | - |
| 1777938837 | 14.44° C | 57% | 1011.1 hPa | 0 mm | - | 0 W/m² | - |
| 1777937623 | 15.56° C | 54% | 1011.2 hPa | 0 mm | - | 0 W/m² | - |
| 1777937016 | 15° C | 55% | 1011.2 hPa | 0 mm | - | 0 W/m² | - |
| 1777936407 | 14.44° C | 56% | 1011.3 hPa | 0 mm | - | 0 W/m² | - |
| 1777935802 | 13.89° C | 58% | 1011.3 hPa | 0 mm | - | 0 W/m² | - |
| 1777935195 | 14.44° C | 57% | 1011.3 hPa | 0 mm | - | 0 W/m² | - |
| 1777934587 | 14.44° C | 57% | 1011.4 hPa | 0 mm | - | 0 W/m² | - |
| 1777933981 | 15° C | 56% | 1011.4 hPa | 0 mm | - | 0 W/m² | - |
* Rain latest hour (hover to see other rain measurements)
** Current wind speed in m/s (hover to see current wind gust speed)